Nearby METAR Reports

 

K1A5 - Macon/Franklin, North Carolina, USA
Distance from station: WSW 16mi, 25km
Updated: Thu, 15-Nov-2018 7:20am EST
Heavy drizzle, Overcast
Heavy drizzle, Overcast
 Wind from calm
Wind: Calm
Temperature: 45°F , 7°C
Dew Point: 45°F , 7°C
Humidity: 100%
Barometer: 30.00 inHg , 1015.9 hPa
Summary: Heavy Drizzle
Clouds: Overcast
Visibility: 2 miles , 3 km
Cloud details: Mostly cloudy 1000 ft
Overcast 1700 ft
2018/11/15 12:20 K1A5 151220Z AUTO 00000KT 2SM +DZ BKN010 OVC017 07/07 A3000 RMK AO2 T00650065
KAVL - Asheville, North Carolina, USA
Distance from station: ENE 36mi, 59km
Updated: Thu, 15-Nov-2018 7:19am EST
Light rain, Mist, Overcast
Light rain, Mist, Overcast
 Wind from SW
Wind: SW 9 mph , 15 km/h
Temperature: 36°F , 2°C
Wind Chill: 29°F , -2°C
Dew Point: 34°F , 1°C
Humidity: 93%
Barometer: 30.05 inHg , 1017.6 hPa
Summary: Light rain, Mist
Clouds: Overcast
Visibility: 2 miles , 3 km
Cloud details: Partly cloudy 400 ft
Mostly cloudy 3300 ft
Overcast 8000 ft
2018/11/15 12:19 KAVL 151219Z 23008KT 2SM -RA BR SCT004 BKN033 OVC080 02/01 A3005 RMK AO2 P0003 T00220006
 
KRHP - Andrews, North Carolina, USA
Distance from station: WSW 40mi, 64km
Updated: Thu, 15-Nov-2018 7:20am EST
Drizzle, Overcast
Drizzle, Overcast
 Wind from SW
Wind: SW 10 mph , 17 km/h
Temperature: 43°F , 6°C
Wind Chill: 37°F , 3°C
Dew Point: 43°F , 6°C
Humidity: 100%
Barometer: 30.05 inHg , 1017.6 hPa
Summary: Drizzle
Clouds: Overcast
Visibility: 5 miles , 8 km
Cloud details: Mostly cloudy 700 ft
Mostly cloudy 1300 ft
Overcast 2900 ft
2018/11/15 12:20 KRHP 151220Z AUTO 23009KT 5SM DZ BKN007 BKN013 OVC029 06/06 A3005 RMK AO2 T00560056
KLQK - Pickens, South Carolina, USA
Distance from station: SE 42mi, 68km
Updated: Thu, 15-Nov-2018 7:35am EST
Light rain, Overcast
Light rain, Overcast
 Wind from NE
Wind: NE 8 mph , 13 km/h, Gust: 22 mph , 35 km/h
Temperature: 37°F , 3°C
Wind Chill: 31°F , -1°C
Dew Point: 37°F , 3°C
Humidity: 100%
Barometer: 30.00 inHg , 1015.9 hPa
Summary: Light rain
Clouds: Overcast
Visibility: 10 miles , 16 km
Cloud details: Overcast 700 ft
2018/11/15 12:35 KLQK 151235Z AUTO 05007G19KT 020V080 10SM -RA OVC007 03/03 A3000 RMK AO2 T00310031
 
KCEU - Clemson, South Carolina, USA
Distance from station: SSE 46mi, 75km
Updated: Thu, 15-Nov-2018 6:54am EST
Rain, Overcast
Rain, Overcast
 Wind from E
Wind: E 10 mph , 17 km/h, Gust: 23 mph , 37 km/h
Temperature: 37°F , 3°C
Wind Chill: 30°F , -1°C
Dew Point: 37°F , 3°C
Humidity: 100%
Barometer: 30.02 inHg , 1016.6 hPa
Summary: Rain
Clouds: Overcast
Visibility: 7 miles , 11 km
Cloud details: Overcast 800 ft
2018/11/15 11:54 KCEU 151154Z AUTO 08009G20KT 7SM RA OVC008 03/03 A3002 RMK AO2 CIG 005V009 SLP169 P0009 60080 70128 T00330028 10044 20028 58047
KTOC - Toccoa, Georgia, USA
Distance from station: S 49mi, 79km
Updated: Thu, 15-Nov-2018 7:15am EST
Overcast
Overcast
 Wind from calm
Wind: Calm
Temperature: 39°F , 4°C
Dew Point: 37°F , 3°C
Humidity: 93%
Barometer: 30.09 inHg , 1019 hPa
Clouds: Overcast
Visibility: 10 miles , 16 km
Cloud details: Overcast 700 ft
2018/11/15 12:15 KTOC 151215Z AUTO 00000KT 10SM OVC007 04/03 A3009 RMK AO2 T00400030